Ачиры

СКИДКИ НА СМАРТФОНЫ!

Карта отелей и гостиниц, располагающихся рядом с аэропортом Ачиры :

Ачиры Тюменская область 58° 47' 9.1788" N, 67° 18' 54.18" E
Ачиры Тюменская область 58° 47' 9.1788" N, 67° 18' 54.18" E
Код аэродрома ИКАО
HA7M
Код аэродрома RU
ХА7М
Координаты
N58.78588° E067.31505°
Превышение над уровнем моря
47
Основная полоса
11/29
Курс магнитный
113,9/293,9
Длина основной ВПП
18
Ширина основной ВПП
18
Покрытие основной ВПП
Твёрдое (бетон)
Освещение ВПП
Нет
Тип: 
Вертодром
Класс аэродрома: 
Принадлежность: 
ГА
Статус: 
Действующий
Сайт: 
E-mail аэродрома: 
Страна: 
Россия
Регион: 
Тюменская область
Город: 
Дополнительная информация: 
Оператор: нет данных.

Скидки на навигаторы!

Найти трансфер

С помощью этой формы Вы можете найти трансфер из аэропорта Ачиры в город, аэропорт или вокзал:

Погода в аэропортах:

Авиационная погода в Миккели

Регион: 
Погода METAR: 
EFMI 190050Z AUTO 08001KT 4900 BCFG NCD 17/17 Q1019
Время наблюдения
2022-08-19T00:50:00Z
Температура C
17.0
Точка росы
17.0
Направление ветра
80
Скорость ветра (узлы)
1
Метео видимость
3.04
Облачность
CLR
Нижняя граница облачности (футы)
Явления погоды
BCFG
Условия полета
MVFR
CLR — нет облаков ниже 3000 м
FG – туман (небо не видно, температура воздуха выше нуля или ноль);

Авиационная погода в Усть-Каменогорске

Регион: 
Погода METAR: 
UASK 190255Z 25002MPS 220V330 2100 BR BCFG SCT004 10/07 Q1015 TEMPO 0200 FG BKN002 RMK QBB120 QFE736/0981
Время наблюдения
2022-08-19T02:55:00Z
Температура C
10.0
Точка росы
7.0
Направление ветра
250
Скорость ветра (узлы)
4
Метео видимость
1.3
Облачность
SCT
Нижняя граница облачности (футы)
400
Явления погоды
BR BCFG
Условия полета
IFR
Аэропорт подробнее: 
SCT – разбросанная отдельная облачность;
FG – туман (небо не видно, температура воздуха выше нуля или ноль); BR – дымка (видимость от 1 до 9 км);

Авиационная погода в Мирном

Регион: 
Погода METAR: 
UERR 190100Z 03003MPS 3000 BR OVC003 10/10 Q0998 R25/290255 NOSIG RMK QBB100 QFE718/0957
Время наблюдения
2022-08-19T01:00:00Z
Температура C
10.0
Точка росы
10.0
Направление ветра
30
Скорость ветра (узлы)
6
Метео видимость
1.86
Облачность
OVC
Нижняя граница облачности (футы)
300
Явления погоды
BR
Условия полета
LIFR
Аэропорт подробнее: 
OVC – сплошная облачность;
BR – дымка (видимость от 1 до 9 км);

Авиационная погода в Пскове

Регион: 
Погода METAR: 
ULOO 190100Z 00000MPS 3300 R19/P2000D BR NSC 16/16 Q1019 NOSIG RMK QFE760
Время наблюдения
2022-08-19T01:00:00Z
Температура C
16.0
Точка росы
16.0
Направление ветра
0
Скорость ветра (узлы)
0
Метео видимость
2.05
Облачность
CLR
Нижняя граница облачности (футы)
Явления погоды
BR
Условия полета
IFR
CLR — нет облаков ниже 3000 м
BR – дымка (видимость от 1 до 9 км);